sensor_id;sensor_type;location;lat;lon;timestamp;pressure;altitude;pressure_sealevel;temperature
12854;BMP180;6495;51.808;7.478;2022-12-07T00:01:27;101042.00;;;5.70
12854;BMP180;6495;51.808;7.478;2022-12-07T00:04:17;101050.00;;;5.70
12854;BMP180;6495;51.808;7.478;2022-12-07T00:07:04;101043.00;;;5.70
12854;BMP180;6495;51.808;7.478;2022-12-07T00:09:54;101047.00;;;5.70
12854;BMP180;6495;51.808;7.478;2022-12-07T00:12:40;101040.00;;;5.60
12854;BMP180;6495;51.808;7.478;2022-12-07T00:15:27;101042.00;;;5.70
12854;BMP180;6495;51.808;7.478;2022-12-07T00:18:15;101040.00;;;5.70
12854;BMP180;6495;51.808;7.478;2022-12-07T00:21:04;101036.00;;;5.60
12854;BMP180;6495;51.808;7.478;2022-12-07T00:23:53;101038.00;;;5.70
12854;BMP180;6495;51.808;7.478;2022-12-07T00:26:42;101033.00;;;5.70
12854;BMP180;6495;51.808;7.478;2022-12-07T00:29:29;101029.00;;;5.70
12854;BMP180;6495;51.808;7.478;2022-12-07T00:32:15;101028.00;;;5.70
12854;BMP180;6495;51.808;7.478;2022-12-07T00:35:05;101032.00;;;5.70
12854;BMP180;6495;51.808;7.478;2022-12-07T00:37:51;101027.00;;;5.70
12854;BMP180;6495;51.808;7.478;2022-12-07T00:40:38;101027.00;;;5.70
12854;BMP180;6495;51.808;7.478;2022-12-07T00:43:25;101030.00;;;5.60
12854;BMP180;6495;51.808;7.478;2022-12-07T00:46:12;101024.00;;;5.60
12854;BMP180;6495;51.808;7.478;2022-12-07T00:48:59;101013.00;;;5.60
12854;BMP180;6495;51.808;7.478;2022-12-07T00:51:49;101016.00;;;5.70
12854;BMP180;6495;51.808;7.478;2022-12-07T00:54:36;101014.00;;;5.70
12854;BMP180;6495;51.808;7.478;2022-12-07T00:57:23;101013.00;;;5.70
12854;BMP180;6495;51.808;7.478;2022-12-07T01:00:10;101012.00;;;5.60
12854;BMP180;6495;51.808;7.478;2022-12-07T01:02:56;101007.00;;;5.70
12854;BMP180;6495;51.808;7.478;2022-12-07T01:05:50;101009.00;;;5.70
12854;BMP180;6495;51.808;7.478;2022-12-07T01:08:38;101012.00;;;5.70
12854;BMP180;6495;51.808;7.478;2022-12-07T01:11:29;101013.00;;;5.70
12854;BMP180;6495;51.808;7.478;2022-12-07T01:14:16;101003.00;;;5.70
12854;BMP180;6495;51.808;7.478;2022-12-07T01:17:02;101004.00;;;5.70
12854;BMP180;6495;51.808;7.478;2022-12-07T01:19:49;101009.00;;;5.70
12854;BMP180;6495;51.808;7.478;2022-12-07T01:22:37;101010.00;;;5.70
12854;BMP180;6495;51.808;7.478;2022-12-07T01:25:25;101003.00;;;5.60
12854;BMP180;6495;51.808;7.478;2022-12-07T01:28:12;101012.00;;;5.60
12854;BMP180;6495;51.808;7.478;2022-12-07T01:31:01;101010.00;;;5.60
12854;BMP180;6495;51.808;7.478;2022-12-07T01:33:52;101025.00;;;5.60
12854;BMP180;6495;51.808;7.478;2022-12-07T01:36:39;101030.00;;;5.60
12854;BMP180;6495;51.808;7.478;2022-12-07T01:39:26;101026.00;;;5.60
12854;BMP180;6495;51.808;7.478;2022-12-07T01:42:14;101016.00;;;5.60
12854;BMP180;6495;51.808;7.478;2022-12-07T01:45:44;101011.00;;;5.60
12854;BMP180;6495;51.808;7.478;2022-12-07T01:48:34;101024.00;;;5.60
12854;BMP180;6495;51.808;7.478;2022-12-07T01:51:22;101023.00;;;5.60
12854;BMP180;6495;51.808;7.478;2022-12-07T01:54:12;101019.00;;;5.60
12854;BMP180;6495;51.808;7.478;2022-12-07T01:57:01;101017.00;;;5.50
12854;BMP180;6495;51.808;7.478;2022-12-07T01:59:53;101027.00;;;5.50
12854;BMP180;6495;51.808;7.478;2022-12-07T02:02:47;101025.00;;;5.50
12854;BMP180;6495;51.808;7.478;2022-12-07T02:05:37;101015.00;;;5.50
12854;BMP180;6495;51.808;7.478;2022-12-07T02:08:25;101021.00;;;5.50
12854;BMP180;6495;51.808;7.478;2022-12-07T02:11:12;101015.00;;;5.50
12854;BMP180;6495;51.808;7.478;2022-12-07T02:13:59;101020.00;;;5.40
12854;BMP180;6495;51.808;7.478;2022-12-07T02:17:04;101017.00;;;5.50
12854;BMP180;6495;51.808;7.478;2022-12-07T02:20:25;101016.00;;;5.50
12854;BMP180;6495;51.808;7.478;2022-12-07T02:24:10;101017.00;;;5.40
12854;BMP180;6495;51.808;7.478;2022-12-07T02:27:25;101010.00;;;5.40
12854;BMP180;6495;51.808;7.478;2022-12-07T02:30:19;101009.00;;;5.40
12854;BMP180;6495;51.808;7.478;2022-12-07T02:33:13;101011.00;;;5.40
12854;BMP180;6495;51.808;7.478;2022-12-07T02:36:06;101007.00;;;5.30
12854;BMP180;6495;51.808;7.478;2022-12-07T02:39:00;101007.00;;;5.40
12854;BMP180;6495;51.808;7.478;2022-12-07T02:41:53;101019.00;;;5.30
12854;BMP180;6495;51.808;7.478;2022-12-07T02:44:42;101016.00;;;5.30
12854;BMP180;6495;51.808;7.478;2022-12-07T02:47:33;101008.00;;;5.30
12854;BMP180;6495;51.808;7.478;2022-12-07T02:50:21;101011.00;;;5.30
12854;BMP180;6495;51.808;7.478;2022-12-07T02:53:32;101004.00;;;5.30
12854;BMP180;6495;51.808;7.478;2022-12-07T02:56:27;101002.00;;;5.30
12854;BMP180;6495;51.808;7.478;2022-12-07T02:59:30;101001.00;;;5.30
12854;BMP180;6495;51.808;7.478;2022-12-07T03:02:28;101005.00;;;5.30
12854;BMP180;6495;51.808;7.478;2022-12-07T03:05:46;101009.00;;;5.30
12854;BMP180;6495;51.808;7.478;2022-12-07T03:08:47;100997.00;;;5.20
12854;BMP180;6495;51.808;7.478;2022-12-07T03:11:47;101002.00;;;5.20
12854;BMP180;6495;51.808;7.478;2022-12-07T03:14:41;101003.00;;;5.20
12854;BMP180;6495;51.808;7.478;2022-12-07T03:17:35;101008.00;;;5.10
12854;BMP180;6495;51.808;7.478;2022-12-07T03:20:26;101007.00;;;5.10
12854;BMP180;6495;51.808;7.478;2022-12-07T03:23:18;100997.00;;;5.10
12854;BMP180;6495;51.808;7.478;2022-12-07T03:26:10;100997.00;;;5.10
12854;BMP180;6495;51.808;7.478;2022-12-07T03:29:04;100993.00;;;5.10
12854;BMP180;6495;51.808;7.478;2022-12-07T03:31:59;100999.00;;;5.00
12854;BMP180;6495;51.808;7.478;2022-12-07T03:34:53;101004.00;;;5.00
12854;BMP180;6495;51.808;7.478;2022-12-07T03:37:50;100999.00;;;5.00
12854;BMP180;6495;51.808;7.478;2022-12-07T03:40:45;100991.00;;;5.00
12854;BMP180;6495;51.808;7.478;2022-12-07T03:43:35;100992.00;;;4.90
12854;BMP180;6495;51.808;7.478;2022-12-07T03:46:34;100994.00;;;4.90
12854;BMP180;6495;51.808;7.478;2022-12-07T03:49:28;100997.00;;;4.90
12854;BMP180;6495;51.808;7.478;2022-12-07T03:52:25;100991.00;;;4.90
12854;BMP180;6495;51.808;7.478;2022-12-07T03:55:20;100983.00;;;4.90
12854;BMP180;6495;51.808;7.478;2022-12-07T03:58:15;100980.00;;;4.80
12854;BMP180;6495;51.808;7.478;2022-12-07T04:01:02;100970.00;;;4.80
12854;BMP180;6495;51.808;7.478;2022-12-07T04:03:49;100982.00;;;4.80
12854;BMP180;6495;51.808;7.478;2022-12-07T04:06:36;100981.00;;;4.70
12854;BMP180;6495;51.808;7.478;2022-12-07T04:09:23;100973.00;;;4.70
12854;BMP180;6495;51.808;7.478;2022-12-07T04:12:09;100976.00;;;4.70
12854;BMP180;6495;51.808;7.478;2022-12-07T04:14:57;100979.00;;;4.70
12854;BMP180;6495;51.808;7.478;2022-12-07T04:17:44;100983.00;;;4.60
12854;BMP180;6495;51.808;7.478;2022-12-07T04:20:31;100983.00;;;4.60
12854;BMP180;6495;51.808;7.478;2022-12-07T04:23:17;100985.00;;;4.60
12854;BMP180;6495;51.808;7.478;2022-12-07T04:26:04;100983.00;;;4.60
12854;BMP180;6495;51.808;7.478;2022-12-07T04:28:51;100990.00;;;4.60
12854;BMP180;6495;51.808;7.478;2022-12-07T04:31:39;100975.00;;;4.50
12854;BMP180;6495;51.808;7.478;2022-12-07T04:34:26;100974.00;;;4.50
12854;BMP180;6495;51.808;7.478;2022-12-07T04:37:13;100982.00;;;4.50
12854;BMP180;6495;51.808;7.478;2022-12-07T04:40:00;100985.00;;;4.50
12854;BMP180;6495;51.808;7.478;2022-12-07T04:42:47;100980.00;;;4.50
12854;BMP180;6495;51.808;7.478;2022-12-07T04:45:33;100986.00;;;4.50
12854;BMP180;6495;51.808;7.478;2022-12-07T04:48:21;100982.00;;;4.50
12854;BMP180;6495;51.808;7.478;2022-12-07T04:51:08;100987.00;;;4.40
12854;BMP180;6495;51.808;7.478;2022-12-07T04:53:56;100985.00;;;4.40
12854;BMP180;6495;51.808;7.478;2022-12-07T04:56:43;100983.00;;;4.40
12854;BMP180;6495;51.808;7.478;2022-12-07T04:59:30;100977.00;;;4.40
12854;BMP180;6495;51.808;7.478;2022-12-07T05:02:17;100974.00;;;4.40
12854;BMP180;6495;51.808;7.478;2022-12-07T05:05:05;100975.00;;;4.40
12854;BMP180;6495;51.808;7.478;2022-12-07T05:07:52;100968.00;;;4.40
12854;BMP180;6495;51.808;7.478;2022-12-07T05:10:39;100961.00;;;4.40
12854;BMP180;6495;51.808;7.478;2022-12-07T05:13:26;100964.00;;;4.40
12854;BMP180;6495;51.808;7.478;2022-12-07T05:16:13;100971.00;;;4.40
12854;BMP180;6495;51.808;7.478;2022-12-07T05:19:02;100977.00;;;4.30
12854;BMP180;6495;51.808;7.478;2022-12-07T05:21:50;100968.00;;;4.30
12854;BMP180;6495;51.808;7.478;2022-12-07T05:24:37;100969.00;;;4.30
12854;BMP180;6495;51.808;7.478;2022-12-07T05:27:24;100977.00;;;4.30
12854;BMP180;6495;51.808;7.478;2022-12-07T05:30:13;100981.00;;;4.30
12854;BMP180;6495;51.808;7.478;2022-12-07T05:33:00;100978.00;;;4.20
12854;BMP180;6495;51.808;7.478;2022-12-07T05:35:52;100979.00;;;4.20
12854;BMP180;6495;51.808;7.478;2022-12-07T05:38:41;100984.00;;;4.20
12854;BMP180;6495;51.808;7.478;2022-12-07T05:41:28;100986.00;;;4.10
12854;BMP180;6495;51.808;7.478;2022-12-07T05:44:47;100981.00;;;4.10
12854;BMP180;6495;51.808;7.478;2022-12-07T05:47:34;100981.00;;;4.10
12854;BMP180;6495;51.808;7.478;2022-12-07T05:50:21;100977.00;;;4.10
12854;BMP180;6495;51.808;7.478;2022-12-07T05:53:07;100966.00;;;4.10
12854;BMP180;6495;51.808;7.478;2022-12-07T05:55:56;100960.00;;;4.10
12854;BMP180;6495;51.808;7.478;2022-12-07T05:58:42;100968.00;;;4.10
12854;BMP180;6495;51.808;7.478;2022-12-07T06:01:47;100966.00;;;4.10
12854;BMP180;6495;51.808;7.478;2022-12-07T06:04:38;100964.00;;;4.20
12854;BMP180;6495;51.808;7.478;2022-12-07T06:07:24;100971.00;;;4.10
12854;BMP180;6495;51.808;7.478;2022-12-07T06:10:11;100972.00;;;4.10
12854;BMP180;6495;51.808;7.478;2022-12-07T06:12:59;100972.00;;;4.10
12854;BMP180;6495;51.808;7.478;2022-12-07T06:15:47;100959.00;;;4.10
12854;BMP180;6495;51.808;7.478;2022-12-07T06:18:34;100964.00;;;4.10
12854;BMP180;6495;51.808;7.478;2022-12-07T06:21:21;100972.00;;;4.10
12854;BMP180;6495;51.808;7.478;2022-12-07T06:24:10;100971.00;;;4.00
12854;BMP180;6495;51.808;7.478;2022-12-07T06:26:58;100974.00;;;4.00
12854;BMP180;6495;51.808;7.478;2022-12-07T06:29:46;100977.00;;;4.00
12854;BMP180;6495;51.808;7.478;2022-12-07T06:32:33;100971.00;;;4.00
12854;BMP180;6495;51.808;7.478;2022-12-07T06:35:19;100966.00;;;4.00
12854;BMP180;6495;51.808;7.478;2022-12-07T06:38:06;100977.00;;;4.00
12854;BMP180;6495;51.808;7.478;2022-12-07T06:40:53;100974.00;;;4.00
12854;BMP180;6495;51.808;7.478;2022-12-07T06:43:40;100965.00;;;3.90
12854;BMP180;6495;51.808;7.478;2022-12-07T06:46:29;100969.00;;;3.90
12854;BMP180;6495;51.808;7.478;2022-12-07T06:49:16;100971.00;;;3.90
12854;BMP180;6495;51.808;7.478;2022-12-07T06:52:03;100975.00;;;3.90
12854;BMP180;6495;51.808;7.478;2022-12-07T06:54:51;100979.00;;;3.80
12854;BMP180;6495;51.808;7.478;2022-12-07T06:57:38;100985.00;;;3.80
12854;BMP180;6495;51.808;7.478;2022-12-07T07:00:25;100983.00;;;3.80
12854;BMP180;6495;51.808;7.478;2022-12-07T07:03:13;100987.00;;;3.80
12854;BMP180;6495;51.808;7.478;2022-12-07T07:06:00;100983.00;;;3.80
12854;BMP180;6495;51.808;7.478;2022-12-07T07:08:46;100988.00;;;3.80
12854;BMP180;6495;51.808;7.478;2022-12-07T07:11:33;100991.00;;;3.80
12854;BMP180;6495;51.808;7.478;2022-12-07T07:14:20;100989.00;;;3.80
12854;BMP180;6495;51.808;7.478;2022-12-07T07:17:07;100989.00;;;3.70
12854;BMP180;6495;51.808;7.478;2022-12-07T07:19:55;100984.00;;;3.70
12854;BMP180;6495;51.808;7.478;2022-12-07T07:22:42;100985.00;;;3.80
12854;BMP180;6495;51.808;7.478;2022-12-07T07:25:30;100989.00;;;3.80
12854;BMP180;6495;51.808;7.478;2022-12-07T07:28:17;100987.00;;;3.70
12854;BMP180;6495;51.808;7.478;2022-12-07T07:31:04;100986.00;;;3.70
12854;BMP180;6495;51.808;7.478;2022-12-07T07:33:51;100991.00;;;3.70
12854;BMP180;6495;51.808;7.478;2022-12-07T07:36:39;100987.00;;;3.70
12854;BMP180;6495;51.808;7.478;2022-12-07T07:39:26;100993.00;;;3.70
12854;BMP180;6495;51.808;7.478;2022-12-07T07:42:13;101001.00;;;3.70
12854;BMP180;6495;51.808;7.478;2022-12-07T07:45:00;100993.00;;;3.60
12854;BMP180;6495;51.808;7.478;2022-12-07T07:47:47;100991.00;;;3.60
12854;BMP180;6495;51.808;7.478;2022-12-07T07:50:34;100994.00;;;3.60
12854;BMP180;6495;51.808;7.478;2022-12-07T07:53:22;100992.00;;;3.60
12854;BMP180;6495;51.808;7.478;2022-12-07T07:56:09;100998.00;;;3.60
12854;BMP180;6495;51.808;7.478;2022-12-07T07:58:56;100989.00;;;3.60
12854;BMP180;6495;51.808;7.478;2022-12-07T08:01:43;100998.00;;;3.60
12854;BMP180;6495;51.808;7.478;2022-12-07T08:04:29;100997.00;;;3.60
12854;BMP180;6495;51.808;7.478;2022-12-07T08:07:16;100994.00;;;3.60
12854;BMP180;6495;51.808;7.478;2022-12-07T08:10:07;101001.00;;;3.60
12854;BMP180;6495;51.808;7.478;2022-12-07T08:12:54;100993.00;;;3.60
12854;BMP180;6495;51.808;7.478;2022-12-07T08:16:15;100995.00;;;3.70
12854;BMP180;6495;51.808;7.478;2022-12-07T08:19:04;101001.00;;;3.70
12854;BMP180;6495;51.808;7.478;2022-12-07T08:21:51;101002.00;;;3.70
12854;BMP180;6495;51.808;7.478;2022-12-07T08:24:38;101000.00;;;3.70
12854;BMP180;6495;51.808;7.478;2022-12-07T08:27:26;100997.00;;;3.80
12854;BMP180;6495;51.808;7.478;2022-12-07T08:30:13;101002.00;;;3.80
12854;BMP180;6495;51.808;7.478;2022-12-07T08:33:00;101005.00;;;3.90
12854;BMP180;6495;51.808;7.478;2022-12-07T08:35:47;101003.00;;;3.90
12854;BMP180;6495;51.808;7.478;2022-12-07T08:38:35;101005.00;;;3.90
12854;BMP180;6495;51.808;7.478;2022-12-07T08:41:22;101010.00;;;3.90
12854;BMP180;6495;51.808;7.478;2022-12-07T08:44:10;101011.00;;;4.00
12854;BMP180;6495;51.808;7.478;2022-12-07T08:47:02;101010.00;;;4.10
12854;BMP180;6495;51.808;7.478;2022-12-07T08:49:52;101017.00;;;4.10
12854;BMP180;6495;51.808;7.478;2022-12-07T08:52:41;101015.00;;;4.20
12854;BMP180;6495;51.808;7.478;2022-12-07T08:55:29;101000.00;;;4.30
12854;BMP180;6495;51.808;7.478;2022-12-07T08:58:16;101005.00;;;4.30
12854;BMP180;6495;51.808;7.478;2022-12-07T09:01:04;101011.00;;;4.30
12854;BMP180;6495;51.808;7.478;2022-12-07T09:03:51;101012.00;;;4.30
12854;BMP180;6495;51.808;7.478;2022-12-07T09:06:38;101008.00;;;4.40
12854;BMP180;6495;51.808;7.478;2022-12-07T09:09:25;101003.00;;;4.40
12854;BMP180;6495;51.808;7.478;2022-12-07T09:12:12;101001.00;;;4.50
12854;BMP180;6495;51.808;7.478;2022-12-07T09:14:59;100996.00;;;4.50
12854;BMP180;6495;51.808;7.478;2022-12-07T09:17:48;101001.00;;;4.60
12854;BMP180;6495;51.808;7.478;2022-12-07T09:20:35;101021.00;;;4.60
12854;BMP180;6495;51.808;7.478;2022-12-07T09:23:22;101014.00;;;4.70
12854;BMP180;6495;51.808;7.478;2022-12-07T09:26:09;101016.00;;;4.70
12854;BMP180;6495;51.808;7.478;2022-12-07T09:28:55;101017.00;;;4.70
12854;BMP180;6495;51.808;7.478;2022-12-07T09:31:43;101023.00;;;4.80
12854;BMP180;6495;51.808;7.478;2022-12-07T09:34:32;101015.00;;;4.80
12854;BMP180;6495;51.808;7.478;2022-12-07T09:37:19;101018.00;;;4.80
12854;BMP180;6495;51.808;7.478;2022-12-07T09:40:07;101013.00;;;4.90
12854;BMP180;6495;51.808;7.478;2022-12-07T09:42:55;101012.00;;;4.90
12854;BMP180;6495;51.808;7.478;2022-12-07T09:45:44;101020.00;;;5.00
12854;BMP180;6495;51.808;7.478;2022-12-07T09:48:36;101023.00;;;5.00
12854;BMP180;6495;51.808;7.478;2022-12-07T09:51:26;101015.00;;;5.00
12854;BMP180;6495;51.808;7.478;2022-12-07T09:54:14;101004.00;;;5.00
12854;BMP180;6495;51.808;7.478;2022-12-07T09:57:02;101010.00;;;4.90
12854;BMP180;6495;51.808;7.478;2022-12-07T09:59:49;101010.00;;;4.90
12854;BMP180;6495;51.808;7.478;2022-12-07T10:02:40;101007.00;;;5.00
12854;BMP180;6495;51.808;7.478;2022-12-07T10:05:34;101002.00;;;5.00
12854;BMP180;6495;51.808;7.478;2022-12-07T10:08:25;100998.00;;;5.00
12854;BMP180;6495;51.808;7.478;2022-12-07T10:11:12;101003.00;;;5.10
12854;BMP180;6495;51.808;7.478;2022-12-07T10:14:12;100988.00;;;5.20
12854;BMP180;6495;51.808;7.478;2022-12-07T10:17:00;100993.00;;;5.30
12854;BMP180;6495;51.808;7.478;2022-12-07T10:19:47;101008.00;;;5.40
12854;BMP180;6495;51.808;7.478;2022-12-07T10:22:34;101010.00;;;5.50
12854;BMP180;6495;51.808;7.478;2022-12-07T10:25:26;101004.00;;;5.60
12854;BMP180;6495;51.808;7.478;2022-12-07T10:28:16;100995.00;;;5.60
12854;BMP180;6495;51.808;7.478;2022-12-07T10:31:18;100995.00;;;5.60
12854;BMP180;6495;51.808;7.478;2022-12-07T10:34:22;100990.00;;;5.80
12854;BMP180;6495;51.808;7.478;2022-12-07T10:37:20;100990.00;;;5.90
12854;BMP180;6495;51.808;7.478;2022-12-07T10:40:35;100990.00;;;5.90
12854;BMP180;6495;51.808;7.478;2022-12-07T10:43:29;100985.00;;;5.90
12854;BMP180;6495;51.808;7.478;2022-12-07T10:46:37;100991.00;;;6.00
12854;BMP180;6495;51.808;7.478;2022-12-07T10:53:24;100974.00;;;6.20
12854;BMP180;6495;51.808;7.478;2022-12-07T10:57:10;100983.00;;;6.40
12854;BMP180;6495;51.808;7.478;2022-12-07T11:00:13;100985.00;;;6.40
12854;BMP180;6495;51.808;7.478;2022-12-07T11:06:37;100980.00;;;6.70
12854;BMP180;6495;51.808;7.478;2022-12-07T11:09:52;100970.00;;;6.80
12854;BMP180;6495;51.808;7.478;2022-12-07T11:13:35;100968.00;;;6.90
12854;BMP180;6495;51.808;7.478;2022-12-07T11:16:52;100954.00;;;6.90
12854;BMP180;6495;51.808;7.478;2022-12-07T11:20:02;100959.00;;;7.00
12854;BMP180;6495;51.808;7.478;2022-12-07T11:22:59;100965.00;;;7.00
12854;BMP180;6495;51.808;7.478;2022-12-07T11:25:57;100957.00;;;7.10
12854;BMP180;6495;51.808;7.478;2022-12-07T11:29:21;100959.00;;;7.20
12854;BMP180;6495;51.808;7.478;2022-12-07T11:32:20;100954.00;;;7.10
12854;BMP180;6495;51.808;7.478;2022-12-07T11:35:20;100953.00;;;7.10
12854;BMP180;6495;51.808;7.478;2022-12-07T11:38:14;100947.00;;;7.10
12854;BMP180;6495;51.808;7.478;2022-12-07T11:41:06;100944.00;;;7.10
12854;BMP180;6495;51.808;7.478;2022-12-07T11:44:06;100956.00;;;7.00
12854;BMP180;6495;51.808;7.478;2022-12-07T11:47:01;100961.00;;;7.00
12854;BMP180;6495;51.808;7.478;2022-12-07T11:49:54;100955.00;;;6.90
12854;BMP180;6495;51.808;7.478;2022-12-07T11:52:48;100952.00;;;6.90
12854;BMP180;6495;51.808;7.478;2022-12-07T11:55:48;100951.00;;;6.90
12854;BMP180;6495;51.808;7.478;2022-12-07T11:58:48;100939.00;;;6.80
12854;BMP180;6495;51.808;7.478;2022-12-07T12:01:53;100938.00;;;6.80
12854;BMP180;6495;51.808;7.478;2022-12-07T12:04:50;100934.00;;;6.80
12854;BMP180;6495;51.808;7.478;2022-12-07T12:07:40;100935.00;;;6.80
12854;BMP180;6495;51.808;7.478;2022-12-07T12:11:00;100926.00;;;6.80
12854;BMP180;6495;51.808;7.478;2022-12-07T12:14:09;100913.00;;;6.80
12854;BMP180;6495;51.808;7.478;2022-12-07T12:18:10;100905.00;;;6.80
12854;BMP180;6495;51.808;7.478;2022-12-07T12:21:04;100901.00;;;6.80
12854;BMP180;6495;51.808;7.478;2022-12-07T12:23:59;100905.00;;;6.80
12854;BMP180;6495;51.808;7.478;2022-12-07T12:26:52;100904.00;;;6.80
12854;BMP180;6495;51.808;7.478;2022-12-07T12:29:42;100900.00;;;6.80
12854;BMP180;6495;51.808;7.478;2022-12-07T12:32:38;100905.00;;;6.80
12854;BMP180;6495;51.808;7.478;2022-12-07T12:35:32;100900.00;;;6.80
12854;BMP180;6495;51.808;7.478;2022-12-07T12:38:31;100896.00;;;6.80
12854;BMP180;6495;51.808;7.478;2022-12-07T12:41:59;100902.00;;;6.80
12854;BMP180;6495;51.808;7.478;2022-12-07T12:45:19;100896.00;;;6.80
12854;BMP180;6495;51.808;7.478;2022-12-07T12:48:29;100891.00;;;6.70
12854;BMP180;6495;51.808;7.478;2022-12-07T12:51:37;100899.00;;;6.70
12854;BMP180;6495;51.808;7.478;2022-12-07T12:54:27;100888.00;;;6.60
12854;BMP180;6495;51.808;7.478;2022-12-07T12:57:21;100892.00;;;6.60
12854;BMP180;6495;51.808;7.478;2022-12-07T13:00:18;100886.00;;;6.60
12854;BMP180;6495;51.808;7.478;2022-12-07T13:03:26;100889.00;;;6.50
12854;BMP180;6495;51.808;7.478;2022-12-07T13:06:35;100883.00;;;6.50
12854;BMP180;6495;51.808;7.478;2022-12-07T13:09:27;100879.00;;;6.50
12854;BMP180;6495;51.808;7.478;2022-12-07T13:12:19;100879.00;;;6.50
12854;BMP180;6495;51.808;7.478;2022-12-07T13:15:35;100869.00;;;6.50
12854;BMP180;6495;51.808;7.478;2022-12-07T13:18:25;100872.00;;;6.50
12854;BMP180;6495;51.808;7.478;2022-12-07T13:21:44;100880.00;;;6.60
12854;BMP180;6495;51.808;7.478;2022-12-07T13:24:32;100865.00;;;6.50
12854;BMP180;6495;51.808;7.478;2022-12-07T13:27:19;100868.00;;;6.50
12854;BMP180;6495;51.808;7.478;2022-12-07T13:30:16;100858.00;;;6.50
12854;BMP180;6495;51.808;7.478;2022-12-07T13:33:03;100860.00;;;6.40
12854;BMP180;6495;51.808;7.478;2022-12-07T13:35:54;100863.00;;;6.40
12854;BMP180;6495;51.808;7.478;2022-12-07T13:38:51;100851.00;;;6.40
12854;BMP180;6495;51.808;7.478;2022-12-07T13:41:43;100853.00;;;6.40
12854;BMP180;6495;51.808;7.478;2022-12-07T13:44:40;100846.00;;;6.40
12854;BMP180;6495;51.808;7.478;2022-12-07T13:47:34;100836.00;;;6.40
12854;BMP180;6495;51.808;7.478;2022-12-07T13:50:25;100826.00;;;6.40
12854;BMP180;6495;51.808;7.478;2022-12-07T13:53:13;100816.00;;;6.40
12854;BMP180;6495;51.808;7.478;2022-12-07T13:56:02;100823.00;;;6.40
12854;BMP180;6495;51.808;7.478;2022-12-07T13:58:49;100827.00;;;6.50
12854;BMP180;6495;51.808;7.478;2022-12-07T14:01:36;100828.00;;;6.50
12854;BMP180;6495;51.808;7.478;2022-12-07T14:04:35;100824.00;;;6.50
12854;BMP180;6495;51.808;7.478;2022-12-07T14:07:25;100829.00;;;6.50
12854;BMP180;6495;51.808;7.478;2022-12-07T14:10:25;100826.00;;;6.50
12854;BMP180;6495;51.808;7.478;2022-12-07T14:13:30;100830.00;;;6.60
12854;BMP180;6495;51.808;7.478;2022-12-07T14:16:25;100823.00;;;6.50
12854;BMP180;6495;51.808;7.478;2022-12-07T14:19:45;100820.00;;;6.50
12854;BMP180;6495;51.808;7.478;2022-12-07T14:22:35;100822.00;;;6.50
12854;BMP180;6495;51.808;7.478;2022-12-07T14:25:24;100824.00;;;6.50
12854;BMP180;6495;51.808;7.478;2022-12-07T14:28:27;100821.00;;;6.50
12854;BMP180;6495;51.808;7.478;2022-12-07T14:31:18;100816.00;;;6.50
12854;BMP180;6495;51.808;7.478;2022-12-07T14:34:14;100803.00;;;6.40
12854;BMP180;6495;51.808;7.478;2022-12-07T14:37:01;100814.00;;;6.40
12854;BMP180;6495;51.808;7.478;2022-12-07T14:39:47;100818.00;;;6.40
12854;BMP180;6495;51.808;7.478;2022-12-07T14:42:35;100812.00;;;6.40
12854;BMP180;6495;51.808;7.478;2022-12-07T14:45:23;100811.00;;;6.40
12854;BMP180;6495;51.808;7.478;2022-12-07T14:48:12;100807.00;;;6.40
12854;BMP180;6495;51.808;7.478;2022-12-07T14:51:19;100812.00;;;6.40
12854;BMP180;6495;51.808;7.478;2022-12-07T14:54:29;100808.00;;;6.40
12854;BMP180;6495;51.808;7.478;2022-12-07T14:57:17;100807.00;;;6.30
12854;BMP180;6495;51.808;7.478;2022-12-07T15:00:05;100805.00;;;6.30
12854;BMP180;6495;51.808;7.478;2022-12-07T15:02:54;100806.00;;;6.20
12854;BMP180;6495;51.808;7.478;2022-12-07T15:05:41;100808.00;;;6.20
12854;BMP180;6495;51.808;7.478;2022-12-07T15:08:28;100797.00;;;6.20
12854;BMP180;6495;51.808;7.478;2022-12-07T15:11:17;100802.00;;;6.20
12854;BMP180;6495;51.808;7.478;2022-12-07T15:14:04;100794.00;;;6.20
12854;BMP180;6495;51.808;7.478;2022-12-07T15:16:54;100805.00;;;6.20
12854;BMP180;6495;51.808;7.478;2022-12-07T15:20:05;100798.00;;;6.20
12854;BMP180;6495;51.808;7.478;2022-12-07T15:22:52;100801.00;;;6.20
12854;BMP180;6495;51.808;7.478;2022-12-07T15:25:40;100804.00;;;6.20
12854;BMP180;6495;51.808;7.478;2022-12-07T15:28:27;100811.00;;;6.20
12854;BMP180;6495;51.808;7.478;2022-12-07T15:31:16;100811.00;;;6.20
12854;BMP180;6495;51.808;7.478;2022-12-07T15:34:24;100803.00;;;6.20
12854;BMP180;6495;51.808;7.478;2022-12-07T15:37:13;100783.00;;;6.20
12854;BMP180;6495;51.808;7.478;2022-12-07T15:40:00;100782.00;;;6.20
12854;BMP180;6495;51.808;7.478;2022-12-07T15:42:52;100781.00;;;6.20
12854;BMP180;6495;51.808;7.478;2022-12-07T15:45:39;100779.00;;;6.20
12854;BMP180;6495;51.808;7.478;2022-12-07T15:48:24;100784.00;;;6.20
12854;BMP180;6495;51.808;7.478;2022-12-07T15:51:13;100781.00;;;6.20
12854;BMP180;6495;51.808;7.478;2022-12-07T15:54:13;100776.00;;;6.20
12854;BMP180;6495;51.808;7.478;2022-12-07T15:57:02;100764.00;;;6.20
12854;BMP180;6495;51.808;7.478;2022-12-07T15:59:49;100766.00;;;6.20
12854;BMP180;6495;51.808;7.478;2022-12-07T16:02:37;100762.00;;;6.10
12854;BMP180;6495;51.808;7.478;2022-12-07T16:05:24;100770.00;;;6.10
12854;BMP180;6495;51.808;7.478;2022-12-07T16:08:11;100777.00;;;6.10
12854;BMP180;6495;51.808;7.478;2022-12-07T16:11:03;100779.00;;;6.10
12854;BMP180;6495;51.808;7.478;2022-12-07T16:13:50;100768.00;;;6.00
12854;BMP180;6495;51.808;7.478;2022-12-07T16:16:37;100765.00;;;6.00
12854;BMP180;6495;51.808;7.478;2022-12-07T16:19:26;100761.00;;;6.00
12854;BMP180;6495;51.808;7.478;2022-12-07T16:22:12;100756.00;;;5.90
12854;BMP180;6495;51.808;7.478;2022-12-07T16:24:59;100760.00;;;6.00
12854;BMP180;6495;51.808;7.478;2022-12-07T16:27:48;100750.00;;;6.00
12854;BMP180;6495;51.808;7.478;2022-12-07T16:30:34;100762.00;;;6.00
12854;BMP180;6495;51.808;7.478;2022-12-07T16:33:21;100754.00;;;6.00
12854;BMP180;6495;51.808;7.478;2022-12-07T16:36:10;100756.00;;;6.00
12854;BMP180;6495;51.808;7.478;2022-12-07T16:38:58;100750.00;;;5.90
12854;BMP180;6495;51.808;7.478;2022-12-07T16:41:46;100743.00;;;5.90
12854;BMP180;6495;51.808;7.478;2022-12-07T16:44:34;100743.00;;;5.90
12854;BMP180;6495;51.808;7.478;2022-12-07T16:47:22;100747.00;;;5.90
12854;BMP180;6495;51.808;7.478;2022-12-07T16:50:09;100735.00;;;5.80
12854;BMP180;6495;51.808;7.478;2022-12-07T16:52:56;100737.00;;;5.80
12854;BMP180;6495;51.808;7.478;2022-12-07T16:55:44;100734.00;;;5.80